Terminal Aerodrome Forecast
Issued by NWS

Home | Current Version | Previous Version | Text Only | Print | Product List | Glossary On
Versions: 1 2 3 4 5 6 7 8 9 10 11 12 13 14 15 16 17
000
FTUS43 KJKL 172300 RRA
TAFSJS
TAF
KSJS 172339Z 1800/1824 VRB03KT P6SM SCT100
     FM181200 VRB03KT P6SM BKN060
     FM181400 VRB03KT P6SM BKN030 OVC060=

USA.gov is the U.S. government's official web portal to all federal, state and local government web resources and services.